sensor_id;sensor_type;location;lat;lon;timestamp;pressure;altitude;pressure_sealevel;temperature;humidity
72798;BME280;61084;55.816;37.036;2023-03-25T00:01:05;98240.78;;;4.81;68.86
72798;BME280;61084;55.816;37.036;2023-03-25T00:03:39;98242.63;;;4.79;68.93
72798;BME280;61084;55.816;37.036;2023-03-25T00:06:15;98256.69;;;4.75;68.76
72798;BME280;61084;55.816;37.036;2023-03-25T00:08:41;98251.50;;;4.75;68.68
72798;BME280;61084;55.816;37.036;2023-03-25T00:11:07;98244.69;;;4.73;68.87
72798;BME280;61084;55.816;37.036;2023-03-25T00:13:33;98246.44;;;4.72;68.80
72798;BME280;61084;55.816;37.036;2023-03-25T00:16:01;98247.28;;;4.73;69.11
72798;BME280;61084;55.816;37.036;2023-03-25T00:18:30;98242.94;;;4.73;68.78
72798;BME280;61084;55.816;37.036;2023-03-25T00:21:00;98242.25;;;4.70;69.30
72798;BME280;61084;55.816;37.036;2023-03-25T00:23:27;98228.53;;;4.66;68.95
72798;BME280;61084;55.816;37.036;2023-03-25T00:25:53;98233.75;;;4.66;68.98
72798;BME280;61084;55.816;37.036;2023-03-25T00:28:27;98231.91;;;4.68;69.26
72798;BME280;61084;55.816;37.036;2023-03-25T00:31:07;98225.81;;;4.69;69.37
72798;BME280;61084;55.816;37.036;2023-03-25T00:33:34;98228.47;;;4.68;69.71
72798;BME280;61084;55.816;37.036;2023-03-25T00:36:00;98214.56;;;4.69;69.52
72798;BME280;61084;55.816;37.036;2023-03-25T00:38:27;98208.38;;;4.71;69.97
72798;BME280;61084;55.816;37.036;2023-03-25T00:41:17;98200.50;;;4.73;69.54
72798;BME280;61084;55.816;37.036;2023-03-25T00:43:54;98190.09;;;4.73;69.32
72798;BME280;61084;55.816;37.036;2023-03-25T00:46:22;98195.38;;;4.71;69.72
72798;BME280;61084;55.816;37.036;2023-03-25T00:48:49;98196.22;;;4.72;69.85
72798;BME280;61084;55.816;37.036;2023-03-25T00:51:15;98201.44;;;4.72;69.97
72798;BME280;61084;55.816;37.036;2023-03-25T00:53:45;98199.59;;;4.74;69.63
72798;BME280;61084;55.816;37.036;2023-03-25T00:56:11;98195.31;;;4.73;69.68
72798;BME280;61084;55.816;37.036;2023-03-25T00:58:37;98195.22;;;4.74;69.70
72798;BME280;61084;55.816;37.036;2023-03-25T01:01:15;98195.38;;;4.71;69.75
72798;BME280;61084;55.816;37.036;2023-03-25T01:03:41;98198.88;;;4.70;69.80
72798;BME280;61084;55.816;37.036;2023-03-25T01:06:14;98188.56;;;4.69;69.93
72798;BME280;61084;55.816;37.036;2023-03-25T01:08:41;98181.75;;;4.66;69.41
72798;BME280;61084;55.816;37.036;2023-03-25T01:11:17;98188.78;;;4.64;69.95
72798;BME280;61084;55.816;37.036;2023-03-25T01:13:44;98182.75;;;4.64;69.74
72798;BME280;61084;55.816;37.036;2023-03-25T01:16:11;98181.09;;;4.63;69.59
72798;BME280;61084;55.816;37.036;2023-03-25T01:18:37;98174.19;;;4.62;69.87
72798;BME280;61084;55.816;37.036;2023-03-25T01:21:04;98170.75;;;4.61;69.85
72798;BME280;61084;55.816;37.036;2023-03-25T01:23:31;98166.47;;;4.60;69.43
72798;BME280;61084;55.816;37.036;2023-03-25T01:25:56;98163.88;;;4.60;70.07
72798;BME280;61084;55.816;37.036;2023-03-25T01:28:22;98155.22;;;4.59;69.69
72798;BME280;61084;55.816;37.036;2023-03-25T01:30:48;98149.13;;;4.61;69.61
72798;BME280;61084;55.816;37.036;2023-03-25T01:33:14;98146.53;;;4.61;70.02
72798;BME280;61084;55.816;37.036;2023-03-25T01:35:42;98136.19;;;4.59;69.57
72798;BME280;61084;55.816;37.036;2023-03-25T01:38:07;98136.28;;;4.57;69.83
72798;BME280;61084;55.816;37.036;2023-03-25T01:40:33;98132.69;;;4.60;69.80
72798;BME280;61084;55.816;37.036;2023-03-25T01:42:59;98128.34;;;4.61;70.12
72798;BME280;61084;55.816;37.036;2023-03-25T01:45:30;98136.97;;;4.61;69.88
72798;BME280;61084;55.816;37.036;2023-03-25T01:48:04;98130.88;;;4.62;70.22
72798;BME280;61084;55.816;37.036;2023-03-25T01:50:32;98129.03;;;4.64;69.98
72798;BME280;61084;55.816;37.036;2023-03-25T01:53:00;98122.84;;;4.67;70.17
72798;BME280;61084;55.816;37.036;2023-03-25T01:55:29;98120.25;;;4.67;70.29
72798;BME280;61084;55.816;37.036;2023-03-25T01:57:58;98118.41;;;4.69;70.38
72798;BME280;61084;55.816;37.036;2023-03-25T02:00:26;98115.06;;;4.67;70.08
72798;BME280;61084;55.816;37.036;2023-03-25T02:02:53;98105.41;;;4.69;70.22
72798;BME280;61084;55.816;37.036;2023-03-25T02:05:37;98100.22;;;4.69;70.22
72798;BME280;61084;55.816;37.036;2023-03-25T02:08:05;98100.31;;;4.67;69.76
72798;BME280;61084;55.816;37.036;2023-03-25T02:10:31;98095.25;;;4.64;69.80
72798;BME280;61084;55.816;37.036;2023-03-25T02:12:58;98087.44;;;4.64;69.97
72798;BME280;61084;55.816;37.036;2023-03-25T02:15:24;98088.38;;;4.63;70.26
72798;BME280;61084;55.816;37.036;2023-03-25T02:18:58;98077.81;;;4.66;70.29
72798;BME280;61084;55.816;37.036;2023-03-25T02:23:34;98071.50;;;4.72;70.02
72798;BME280;61084;55.816;37.036;2023-03-25T02:26:32;98062.75;;;4.73;70.30
72798;BME280;61084;55.816;37.036;2023-03-25T02:34:47;98058.84;;;4.81;70.83
72798;BME280;61084;55.816;37.036;2023-03-25T02:40:06;98058.47;;;4.89;70.95
72798;BME280;61084;55.816;37.036;2023-03-25T02:46:03;98045.22;;;4.93;70.49
72798;BME280;61084;55.816;37.036;2023-03-25T02:48:30;98036.34;;;4.97;70.65
72798;BME280;61084;55.816;37.036;2023-03-25T02:51:01;98032.81;;;4.98;71.08
72798;BME280;61084;55.816;37.036;2023-03-25T02:53:33;98028.47;;;4.99;70.59
72798;BME280;61084;55.816;37.036;2023-03-25T02:56:05;98028.97;;;5.05;70.83
72798;BME280;61084;55.816;37.036;2023-03-25T02:58:33;98022.78;;;5.08;71.06
72798;BME280;61084;55.816;37.036;2023-03-25T03:01:00;98018.25;;;5.11;71.21
72798;BME280;61084;55.816;37.036;2023-03-25T03:03:27;98005.19;;;5.13;70.64
72798;BME280;61084;55.816;37.036;2023-03-25T03:05:59;97998.88;;;5.17;71.07
72798;BME280;61084;55.816;37.036;2023-03-25T03:08:40;97994.34;;;5.20;70.78
72798;BME280;61084;55.816;37.036;2023-03-25T03:11:14;97991.75;;;5.20;71.12
72798;BME280;61084;55.816;37.036;2023-03-25T03:16:48;97988.75;;;5.28;71.03
72798;BME280;61084;55.816;37.036;2023-03-25T03:22:01;97986.66;;;5.34;71.03
72798;BME280;61084;55.816;37.036;2023-03-25T03:24:31;97977.06;;;5.35;71.29
72798;BME280;61084;55.816;37.036;2023-03-25T03:27:11;97968.19;;;5.39;71.09
72798;BME280;61084;55.816;37.036;2023-03-25T03:29:46;97972.34;;;5.42;70.97
72798;BME280;61084;55.816;37.036;2023-03-25T03:32:15;97967.94;;;5.44;71.57
72798;BME280;61084;55.816;37.036;2023-03-25T03:34:47;97964.41;;;5.45;71.61
72798;BME280;61084;55.816;37.036;2023-03-25T03:37:21;97971.09;;;5.49;71.73
72798;BME280;61084;55.816;37.036;2023-03-25T03:39:50;97962.38;;;5.50;71.23
72798;BME280;61084;55.816;37.036;2023-03-25T03:42:19;97958.84;;;5.51;71.18
72798;BME280;61084;55.816;37.036;2023-03-25T03:45:29;97952.72;;;5.52;71.68
72798;BME280;61084;55.816;37.036;2023-03-25T03:47:56;97943.56;;;5.60;71.80
72798;BME280;61084;55.816;37.036;2023-03-25T03:50:33;97945.91;;;5.65;71.52
72798;BME280;61084;55.816;37.036;2023-03-25T03:53:11;97943.91;;;5.70;70.83
72798;BME280;61084;55.816;37.036;2023-03-25T03:55:48;97932.44;;;5.72;71.40
72798;BME280;61084;55.816;37.036;2023-03-25T03:58:30;97930.44;;;5.77;71.83
72798;BME280;61084;55.816;37.036;2023-03-25T04:01:12;97925.97;;;5.79;71.99
72798;BME280;61084;55.816;37.036;2023-03-25T04:03:46;97921.50;;;5.81;71.65
72798;BME280;61084;55.816;37.036;2023-03-25T04:06:20;97917.94;;;5.84;71.49
72798;BME280;61084;55.816;37.036;2023-03-25T04:09:02;97911.63;;;5.88;71.64
72798;BME280;61084;55.816;37.036;2023-03-25T04:11:36;97909.69;;;5.91;71.76
72798;BME280;61084;55.816;37.036;2023-03-25T04:14:05;97910.34;;;5.95;72.12
72798;BME280;61084;55.816;37.036;2023-03-25T04:16:32;97904.19;;;5.96;71.39
72798;BME280;61084;55.816;37.036;2023-03-25T04:18:58;97899.66;;;5.99;71.28
72798;BME280;61084;55.816;37.036;2023-03-25T04:21:24;97890.84;;;6.02;71.72
72798;BME280;61084;55.816;37.036;2023-03-25T04:23:50;97887.22;;;6.04;71.08
72798;BME280;61084;55.816;37.036;2023-03-25T04:26:16;97887.22;;;6.04;71.26
72798;BME280;61084;55.816;37.036;2023-03-25T04:28:42;97887.88;;;6.08;71.33
72798;BME280;61084;55.816;37.036;2023-03-25T04:31:14;97888.50;;;6.12;71.44
72798;BME280;61084;55.816;37.036;2023-03-25T04:33:44;97876.06;;;6.17;72.47
72798;BME280;61084;55.816;37.036;2023-03-25T04:36:13;97876.81;;;6.19;71.94
72798;BME280;61084;55.816;37.036;2023-03-25T04:38:40;97879.97;;;6.24;71.99
72798;BME280;61084;55.816;37.036;2023-03-25T04:41:11;97871.88;;;6.28;71.55
72798;BME280;61084;55.816;37.036;2023-03-25T04:43:38;97872.53;;;6.32;71.57
72798;BME280;61084;55.816;37.036;2023-03-25T04:46:05;97865.34;;;6.35;71.57
72798;BME280;61084;55.816;37.036;2023-03-25T04:48:33;97870.28;;;6.40;71.32
72798;BME280;61084;55.816;37.036;2023-03-25T04:51:00;97867.41;;;6.44;71.83
72798;BME280;61084;55.816;37.036;2023-03-25T04:53:28;97867.13;;;6.49;71.22
72798;BME280;61084;55.816;37.036;2023-03-25T04:55:55;97866.75;;;6.55;71.27
72798;BME280;61084;55.816;37.036;2023-03-25T04:58:21;97855.13;;;6.60;71.71
72798;BME280;61084;55.816;37.036;2023-03-25T05:00:49;97856.72;;;6.63;71.43
72798;BME280;61084;55.816;37.036;2023-03-25T05:03:17;97868.63;;;6.67;71.43
72798;BME280;61084;55.816;37.036;2023-03-25T05:05:51;97860.59;;;6.70;71.59
72798;BME280;61084;55.816;37.036;2023-03-25T05:08:18;97860.41;;;6.73;71.20
72798;BME280;61084;55.816;37.036;2023-03-25T05:10:46;97857.91;;;6.71;71.32
72798;BME280;61084;55.816;37.036;2023-03-25T05:13:12;97853.31;;;6.75;71.16
72798;BME280;61084;55.816;37.036;2023-03-25T05:15:38;97857.41;;;6.79;71.01
72798;BME280;61084;55.816;37.036;2023-03-25T05:18:11;97857.41;;;6.79;71.53
72798;BME280;61084;55.816;37.036;2023-03-25T05:20:45;97864.94;;;6.83;71.22
72798;BME280;61084;55.816;37.036;2023-03-25T05:23:15;97849.03;;;6.88;71.31
72798;BME280;61084;55.816;37.036;2023-03-25T05:25:46;97854.06;;;6.91;71.20
72798;BME280;61084;55.816;37.036;2023-03-25T05:28:13;97864.28;;;6.94;71.06
72798;BME280;61084;55.816;37.036;2023-03-25T05:30:45;97859.72;;;6.98;71.56
72798;BME280;61084;55.816;37.036;2023-03-25T05:33:14;97858.59;;;7.02;71.19
72798;BME280;61084;55.816;37.036;2023-03-25T05:35:40;97848.59;;;7.08;71.61
72798;BME280;61084;55.816;37.036;2023-03-25T05:38:08;97845.41;;;7.17;71.51
72798;BME280;61084;55.816;37.036;2023-03-25T05:40:45;97844.72;;;7.28;71.45
72798;BME280;61084;55.816;37.036;2023-03-25T05:43:12;97832.84;;;7.36;71.28
72798;BME280;61084;55.816;37.036;2023-03-25T05:45:40;97840.88;;;7.46;71.46
72798;BME280;61084;55.816;37.036;2023-03-25T05:48:06;97843.94;;;7.52;71.67
72798;BME280;61084;55.816;37.036;2023-03-25T05:50:33;97839.16;;;7.59;71.32
72798;BME280;61084;55.816;37.036;2023-03-25T05:53:00;97836.25;;;7.63;71.59
72798;BME280;61084;55.816;37.036;2023-03-25T05:55:27;97823.84;;;7.67;71.14
72798;BME280;61084;55.816;37.036;2023-03-25T05:57:52;97827.81;;;7.73;70.96
72798;BME280;61084;55.816;37.036;2023-03-25T06:00:19;97833.69;;;7.76;71.13
72798;BME280;61084;55.816;37.036;2023-03-25T06:02:46;97837.09;;;7.77;71.27
72798;BME280;61084;55.816;37.036;2023-03-25T06:05:14;97835.44;;;7.76;70.57
72798;BME280;61084;55.816;37.036;2023-03-25T06:07:44;97842.31;;;7.77;70.60
72798;BME280;61084;55.816;37.036;2023-03-25T06:10:12;97837.03;;;7.78;70.56
72798;BME280;61084;55.816;37.036;2023-03-25T06:12:43;97838.06;;;7.76;70.93
72798;BME280;61084;55.816;37.036;2023-03-25T06:15:12;97839.09;;;7.73;70.92
72798;BME280;61084;55.816;37.036;2023-03-25T06:17:39;97847.66;;;7.75;70.84
72798;BME280;61084;55.816;37.036;2023-03-25T06:20:06;97843.28;;;7.76;71.17
72798;BME280;61084;55.816;37.036;2023-03-25T06:22:41;97842.31;;;7.77;70.79
72798;BME280;61084;55.816;37.036;2023-03-25T06:25:08;97845.59;;;7.80;71.46
72798;BME280;61084;55.816;37.036;2023-03-25T06:27:35;97843.91;;;7.79;71.28
72798;BME280;61084;55.816;37.036;2023-03-25T06:30:10;97833.69;;;7.76;71.33
72798;BME280;61084;55.816;37.036;2023-03-25T06:32:37;97831.06;;;7.76;71.23
72798;BME280;61084;55.816;37.036;2023-03-25T06:35:05;97828.22;;;7.79;72.04
72798;BME280;61084;55.816;37.036;2023-03-25T06:37:32;97833.44;;;7.79;72.02
72798;BME280;61084;55.816;37.036;2023-03-25T06:40:00;97845.47;;;7.82;71.99
72798;BME280;61084;55.816;37.036;2023-03-25T06:42:28;97832.59;;;7.79;71.78
72798;BME280;61084;55.816;37.036;2023-03-25T06:45:14;97830.84;;;7.79;72.11
72798;BME280;61084;55.816;37.036;2023-03-25T06:47:44;97828.97;;;7.81;71.94
72798;BME280;61084;55.816;37.036;2023-03-25T06:50:10;97838.38;;;7.84;72.15
72798;BME280;61084;55.816;37.036;2023-03-25T06:52:35;97830.44;;;7.85;71.66
72798;BME280;61084;55.816;37.036;2023-03-25T06:55:01;97833.25;;;7.82;72.20
72798;BME280;61084;55.816;37.036;2023-03-25T06:57:28;97832.31;;;7.83;72.21
72798;BME280;61084;55.816;37.036;2023-03-25T06:59:54;97827.94;;;7.84;72.52
72798;BME280;61084;55.816;37.036;2023-03-25T07:02:20;97827.81;;;7.85;72.45
72798;BME280;61084;55.816;37.036;2023-03-25T07:04:46;97834.72;;;7.86;72.61
72798;BME280;61084;55.816;37.036;2023-03-25T07:07:11;97822.41;;;7.88;72.53
72798;BME280;61084;55.816;37.036;2023-03-25T07:09:37;97830.22;;;7.88;72.34
72798;BME280;61084;55.816;37.036;2023-03-25T07:12:03;97825.13;;;7.87;72.42
72798;BME280;61084;55.816;37.036;2023-03-25T07:14:29;97819.78;;;7.88;72.03
72798;BME280;61084;55.816;37.036;2023-03-25T07:16:55;97817.06;;;7.90;72.21
72798;BME280;61084;55.816;37.036;2023-03-25T07:19:21;97813.41;;;7.92;72.52
72798;BME280;61084;55.816;37.036;2023-03-25T07:21:46;97825.53;;;7.93;71.86
72798;BME280;61084;55.816;37.036;2023-03-25T07:24:12;97814.97;;;7.95;72.24
72798;BME280;61084;55.816;37.036;2023-03-25T07:26:38;97809.75;;;7.95;72.37
72798;BME280;61084;55.816;37.036;2023-03-25T07:29:04;97815.59;;;7.98;72.61
72798;BME280;61084;55.816;37.036;2023-03-25T07:31:31;97815.59;;;7.98;72.28
72798;BME280;61084;55.816;37.036;2023-03-25T07:33:56;97817.28;;;7.99;72.33
72798;BME280;61084;55.816;37.036;2023-03-25T07:36:24;97809.13;;;8.04;72.27
72798;BME280;61084;55.816;37.036;2023-03-25T07:38:51;97805.47;;;8.06;72.55
72798;BME280;61084;55.816;37.036;2023-03-25T07:41:17;97813.22;;;8.08;72.33
72798;BME280;61084;55.816;37.036;2023-03-25T07:44:11;97819.03;;;8.11;72.38
72798;BME280;61084;55.816;37.036;2023-03-25T07:46:37;97819.69;;;8.15;72.49
72798;BME280;61084;55.816;37.036;2023-03-25T07:49:03;97828.56;;;8.12;72.17
72798;BME280;61084;55.816;37.036;2023-03-25T07:51:29;97832.97;;;8.12;72.67
72798;BME280;61084;55.816;37.036;2023-03-25T07:53:55;97832.03;;;8.13;72.37
72798;BME280;61084;55.816;37.036;2023-03-25T07:56:20;97847.59;;;8.14;72.29
72798;BME280;61084;55.816;37.036;2023-03-25T07:58:46;97841.44;;;8.15;72.13
72798;BME280;61084;55.816;37.036;2023-03-25T08:01:32;97850.00;;;8.17;72.26
72798;BME280;61084;55.816;37.036;2023-03-25T08:03:58;97839.44;;;8.19;72.45
72798;BME280;61084;55.816;37.036;2023-03-25T08:06:24;97846.13;;;8.23;72.15
72798;BME280;61084;55.816;37.036;2023-03-25T08:08:51;97847.63;;;8.27;72.74
72798;BME280;61084;55.816;37.036;2023-03-25T08:11:16;97844.94;;;8.28;72.22
72798;BME280;61084;55.816;37.036;2023-03-25T08:13:42;97848.34;;;8.29;72.38
72798;BME280;61084;55.816;37.036;2023-03-25T08:16:12;97851.81;;;8.29;72.55
72798;BME280;61084;55.816;37.036;2023-03-25T08:18:38;97850.03;;;8.30;72.89
72798;BME280;61084;55.816;37.036;2023-03-25T08:21:05;97847.19;;;8.33;72.70
72798;BME280;61084;55.816;37.036;2023-03-25T08:23:30;97849.59;;;8.36;72.47
72798;BME280;61084;55.816;37.036;2023-03-25T08:26:01;97852.09;;;8.38;72.63
72798;BME280;61084;55.816;37.036;2023-03-25T08:28:27;97850.97;;;8.42;72.89
72798;BME280;61084;55.816;37.036;2023-03-25T08:30:53;97843.94;;;8.42;72.59
72798;BME280;61084;55.816;37.036;2023-03-25T08:33:25;97846.25;;;8.47;72.60
72798;BME280;61084;55.816;37.036;2023-03-25T08:35:52;97835.59;;;8.50;72.69
72798;BME280;61084;55.816;37.036;2023-03-25T08:38:17;97844.88;;;8.54;72.87
72798;BME280;61084;55.816;37.036;2023-03-25T08:40:43;97845.50;;;8.57;72.41
72798;BME280;61084;55.816;37.036;2023-03-25T08:43:09;97841.84;;;8.60;72.94
72798;BME280;61084;55.816;37.036;2023-03-25T08:45:35;97842.69;;;8.60;72.61
72798;BME280;61084;55.816;37.036;2023-03-25T08:48:02;97850.31;;;8.63;72.75
72798;BME280;61084;55.816;37.036;2023-03-25T08:50:35;97849.97;;;8.68;72.72
72798;BME280;61084;55.816;37.036;2023-03-25T08:53:00;97841.94;;;8.71;73.53
72798;BME280;61084;55.816;37.036;2023-03-25T08:55:26;97831.25;;;8.74;72.98
72798;BME280;61084;55.816;37.036;2023-03-25T08:57:52;97818.78;;;8.77;73.86
72798;BME280;61084;55.816;37.036;2023-03-25T09:00:18;97824.41;;;8.84;72.76
72798;BME280;61084;55.816;37.036;2023-03-25T09:02:48;97817.94;;;8.89;72.71
72798;BME280;61084;55.816;37.036;2023-03-25T09:05:21;97833.19;;;8.95;73.01
72798;BME280;61084;55.816;37.036;2023-03-25T09:07:47;97848.44;;;9.01;73.36
72798;BME280;61084;55.816;37.036;2023-03-25T09:10:16;97852.63;;;9.04;73.27
72798;BME280;61084;55.816;37.036;2023-03-25T09:12:42;97856.81;;;9.06;73.09
72798;BME280;61084;55.816;37.036;2023-03-25T09:15:14;97865.47;;;9.07;72.67
72798;BME280;61084;55.816;37.036;2023-03-25T09:17:40;97863.50;;;9.10;72.89
72798;BME280;61084;55.816;37.036;2023-03-25T09:20:07;97872.06;;;9.13;73.19
72798;BME280;61084;55.816;37.036;2023-03-25T09:22:37;97881.56;;;9.13;72.60
72798;BME280;61084;55.816;37.036;2023-03-25T09:25:03;97897.28;;;9.13;72.54
72798;BME280;61084;55.816;37.036;2023-03-25T09:27:31;97889.56;;;9.12;72.80
72798;BME280;61084;55.816;37.036;2023-03-25T09:29:57;97880.84;;;9.11;72.58
72798;BME280;61084;55.816;37.036;2023-03-25T09:32:23;97884.09;;;9.15;72.94
72798;BME280;61084;55.816;37.036;2023-03-25T09:34:50;97889.22;;;9.17;73.06
72798;BME280;61084;55.816;37.036;2023-03-25T09:37:16;97880.94;;;9.23;72.48
72798;BME280;61084;55.816;37.036;2023-03-25T09:39:42;97880.47;;;9.29;72.97
72798;BME280;61084;55.816;37.036;2023-03-25T09:47:25;97879.59;;;9.41;72.39
72798;BME280;61084;55.816;37.036;2023-03-25T09:49:56;97882.75;;;9.46;73.11
72798;BME280;61084;55.816;37.036;2023-03-25T09:52:34;97885.75;;;9.52;72.68
72798;BME280;61084;55.816;37.036;2023-03-25T09:55:05;97884.66;;;9.55;72.97
72798;BME280;61084;55.816;37.036;2023-03-25T09:57:43;97884.34;;;9.59;72.63
72798;BME280;61084;55.816;37.036;2023-03-25T10:00:19;97877.81;;;9.65;72.85
72798;BME280;61084;55.816;37.036;2023-03-25T10:05:41;97885.09;;;9.72;72.90
72798;BME280;61084;55.816;37.036;2023-03-25T10:11:06;97864.66;;;9.77;72.49
72798;BME280;61084;55.816;37.036;2023-03-25T10:21:52;97878.28;;;9.94;72.43
72798;BME280;61084;55.816;37.036;2023-03-25T10:24:35;97890.31;;;9.96;72.31
72798;BME280;61084;55.816;37.036;2023-03-25T10:27:48;97880.66;;;9.97;72.65
72798;BME280;61084;55.816;37.036;2023-03-25T10:32:44;97879.16;;;10.05;72.47
72798;BME280;61084;55.816;37.036;2023-03-25T10:35:21;97873.69;;;10.08;71.90
72798;BME280;61084;55.816;37.036;2023-03-25T10:37:51;97875.34;;;10.09;72.12
72798;BME280;61084;55.816;37.036;2023-03-25T10:40:38;97882.16;;;10.12;72.42
72798;BME280;61084;55.816;37.036;2023-03-25T10:45:46;97882.59;;;10.06;71.86
72798;BME280;61084;55.816;37.036;2023-03-25T10:48:19;97890.34;;;10.07;72.12
72798;BME280;61084;55.816;37.036;2023-03-25T10:50:46;97890.47;;;10.06;71.55
72798;BME280;61084;55.816;37.036;2023-03-25T10:53:40;97884.38;;;10.05;72.46
72798;BME280;61084;55.816;37.036;2023-03-25T10:56:54;97872.13;;;10.06;71.91
72798;BME280;61084;55.816;37.036;2023-03-25T10:58:56;97875.94;;;10.02;71.92
72798;BME280;61084;55.816;37.036;2023-03-25T11:03:58;97878.34;;;10.05;72.30
72798;BME280;61084;55.816;37.036;2023-03-25T11:06:28;97884.50;;;10.04;72.22
72798;BME280;61084;55.816;37.036;2023-03-25T11:09:16;97896.06;;;10.01;72.13
72798;BME280;61084;55.816;37.036;2023-03-25T11:11:47;97891.53;;;10.03;72.19
72798;BME280;61084;55.816;37.036;2023-03-25T11:14:14;97899.06;;;10.08;72.21
72798;BME280;61084;55.816;37.036;2023-03-25T11:16:47;97899.72;;;10.11;71.96
72798;BME280;61084;55.816;37.036;2023-03-25T11:19:24;97898.75;;;10.12;71.84
72798;BME280;61084;55.816;37.036;2023-03-25T11:22:06;97889.69;;;10.16;72.18
72798;BME280;61084;55.816;37.036;2023-03-25T11:24:39;97888.84;;;10.16;71.76
72798;BME280;61084;55.816;37.036;2023-03-25T11:27:07;97899.25;;;10.17;71.39
72798;BME280;61084;55.816;37.036;2023-03-25T11:29:34;97904.50;;;10.17;72.11
72798;BME280;61084;55.816;37.036;2023-03-25T11:32:12;97897.56;;;10.16;71.87
72798;BME280;61084;55.816;37.036;2023-03-25T11:34:39;97896.28;;;10.22;72.02
72798;BME280;61084;55.816;37.036;2023-03-25T11:37:19;97899.97;;;10.19;71.73
72798;BME280;61084;55.816;37.036;2023-03-25T11:39:53;97901.53;;;10.22;72.23
72798;BME280;61084;55.816;37.036;2023-03-25T11:44:50;97910.09;;;10.24;71.83
72798;BME280;61084;55.816;37.036;2023-03-25T11:47:37;97907.13;;;10.28;72.01
72798;BME280;61084;55.816;37.036;2023-03-25T11:50:05;97898.94;;;10.33;71.89
72798;BME280;61084;55.816;37.036;2023-03-25T11:52:43;97904.88;;;10.35;71.71
72798;BME280;61084;55.816;37.036;2023-03-25T11:55:29;97905.47;;;10.38;71.94
72798;BME280;61084;55.816;37.036;2023-03-25T11:57:57;97900.94;;;10.40;71.90
72798;BME280;61084;55.816;37.036;2023-03-25T12:00:26;97898.44;;;10.39;71.87
72798;BME280;61084;55.816;37.036;2023-03-25T12:03:00;97893.78;;;10.42;72.01
72798;BME280;61084;55.816;37.036;2023-03-25T12:05:26;97895.47;;;10.43;71.57
72798;BME280;61084;55.816;37.036;2023-03-25T12:08:02;97911.94;;;10.45;71.90
72798;BME280;61084;55.816;37.036;2023-03-25T12:10:34;97915.28;;;10.47;71.83
72798;BME280;61084;55.816;37.036;2023-03-25T12:15:48;97897.63;;;10.49;71.79
72798;BME280;61084;55.816;37.036;2023-03-25T12:26:32;97910.16;;;10.46;71.50
72798;BME280;61084;55.816;37.036;2023-03-25T12:34:52;97911.25;;;10.54;71.70
72798;BME280;61084;55.816;37.036;2023-03-25T12:37:33;97901.34;;;10.58;71.49
72798;BME280;61084;55.816;37.036;2023-03-25T12:45:39;97892.75;;;10.78;71.44
72798;BME280;61084;55.816;37.036;2023-03-25T12:48:47;97897.53;;;10.84;71.14
72798;BME280;61084;55.816;37.036;2023-03-25T13:05:36;97894.78;;;10.97;70.58
72798;BME280;61084;55.816;37.036;2023-03-25T13:10:42;97904.78;;;10.92;71.04
72798;BME280;61084;55.816;37.036;2023-03-25T13:13:20;97899.09;;;10.87;70.75
72798;BME280;61084;55.816;37.036;2023-03-25T13:18:30;97910.31;;;10.89;70.82
72798;BME280;61084;55.816;37.036;2023-03-25T13:23:43;97895.97;;;10.93;71.03
72798;BME280;61084;55.816;37.036;2023-03-25T13:26:12;97891.31;;;10.96;70.93
72798;BME280;61084;55.816;37.036;2023-03-25T13:28:44;97895.63;;;10.97;70.88
72798;BME280;61084;55.816;37.036;2023-03-25T13:31:15;97901.72;;;10.98;70.85
72798;BME280;61084;55.816;37.036;2023-03-25T13:33:52;97909.59;;;10.98;70.42
72798;BME280;61084;55.816;37.036;2023-03-25T13:36:38;97908.88;;;10.96;70.78
72798;BME280;61084;55.816;37.036;2023-03-25T13:41:53;97899.31;;;10.95;70.83
72798;BME280;61084;55.816;37.036;2023-03-25T13:44:29;97902.91;;;10.94;70.48
72798;BME280;61084;55.816;37.036;2023-03-25T13:47:04;97901.44;;;10.90;70.32
72798;BME280;61084;55.816;37.036;2023-03-25T13:49:47;97896.19;;;10.90;70.39
72798;BME280;61084;55.816;37.036;2023-03-25T13:52:14;97901.59;;;10.88;70.49
72798;BME280;61084;55.816;37.036;2023-03-25T13:54:45;97902.44;;;10.89;70.62
72798;BME280;61084;55.816;37.036;2023-03-25T13:57:43;97903.28;;;10.89;70.44
72798;BME280;61084;55.816;37.036;2023-03-25T14:14:09;97904.56;;;10.84;70.27
72798;BME280;61084;55.816;37.036;2023-03-25T14:16:53;97911.00;;;10.80;70.44
72798;BME280;61084;55.816;37.036;2023-03-25T14:19:43;97904.91;;;10.79;70.49
72798;BME280;61084;55.816;37.036;2023-03-25T14:22:16;97913.75;;;10.78;70.40
72798;BME280;61084;55.816;37.036;2023-03-25T14:24:44;97910.16;;;10.79;70.34
72798;BME280;61084;55.816;37.036;2023-03-25T14:29:40;97910.53;;;10.75;70.45
72798;BME280;61084;55.816;37.036;2023-03-25T14:34:45;97912.06;;;10.77;70.29
72798;BME280;61084;55.816;37.036;2023-03-25T14:37:23;97920.91;;;10.76;70.25
72798;BME280;61084;55.816;37.036;2023-03-25T14:39:53;97922.47;;;10.79;70.52
72798;BME280;61084;55.816;37.036;2023-03-25T14:42:23;97923.63;;;10.75;70.12
72798;BME280;61084;55.816;37.036;2023-03-25T14:47:57;97926.41;;;10.73;70.08
72798;BME280;61084;55.816;37.036;2023-03-25T14:52:51;97922.34;;;10.69;70.07
72798;BME280;61084;55.816;37.036;2023-03-25T14:55:20;97920.66;;;10.68;70.19
72798;BME280;61084;55.816;37.036;2023-03-25T14:57:57;97925.91;;;10.68;70.17
72798;BME280;61084;55.816;37.036;2023-03-25T15:00:28;97927.81;;;10.66;70.06
72798;BME280;61084;55.816;37.036;2023-03-25T15:03:02;97926.25;;;10.63;70.08
72798;BME280;61084;55.816;37.036;2023-03-25T15:05:30;97930.69;;;10.63;69.91
72798;BME280;61084;55.816;37.036;2023-03-25T15:10:37;97935.22;;;10.61;70.27
72798;BME280;61084;55.816;37.036;2023-03-25T15:13:07;97931.03;;;10.58;70.03
72798;BME280;61084;55.816;37.036;2023-03-25T15:23:59;97938.03;;;10.47;70.33
72798;BME280;61084;55.816;37.036;2023-03-25T15:26:31;97936.38;;;10.46;70.54
72798;BME280;61084;55.816;37.036;2023-03-25T15:32:19;97945.19;;;10.45;70.62